Aspen (ASE/KASE)

Map

Information

Location
Aspen, CO
Local Time
23:34 / 11:34 pm
GMT Time
06:34 / 6:34 am
Gates
Unassigned
No FAA reported delays
METAR KASE 220553Z 23018G32KT 200V260 10SM FEW085 08/M08 A3004 RMK AO2 PK WND 20032/0553 SLP095 60000 T00831083 10094 20072 56016
TAF KASE 220542Z 2206/2306 20012G20KT P6SM SCT050 BKN080 WS020/24045KT FM221100 15015G20KT P6SM VCSH BKN045 WS020/24035KT FM221500 18010G22KT P6SM VCSH BKN050 FM221900 32008KT P6SM VCSH BKN100 FM222200 25011G26KT P6SM VCSH OVC100 FM230200 12006KT P6SM BKN070
  • No charts available